SABESAME

Guest
Details From SABE - Aeroparque Jorge Newbery
To SAME - El Plumerillo
Flight Number -
Tags Generated
Created
Modified
Stats Distance 529 nm / 980 km
Max Altitude 0 ft / 0 m
Waypoints 4
Social Downloads 4
Likes 0
Share VATSIM

Download

Looking for another format? Having issues loading an existing format? Contact us
Advertisement - Login to hide

Notes

Generated

Route

SABE ALDOR DOZ14 SAME

ID Type Via Altitude Latitude Longitude Leg Dist Tot Dist Heading (true) Name
O SABE APT - 0 ft / 0 m -34.55416˚ -58.42526˚ - 0 nm - -
ALDOR FIX - 0 ft / 0 m -33.49972˚ -63.91833˚ 280 nm 280 nm 281° / 285° -
DOZ14 FIX - 0 ft / 0 m -32.84388˚ -68.51407˚ 234 nm 514 nm 278° / 281° -
O SAME APT - 0 ft / 0 m -32.81817˚ -68.79271˚ 14 nm 529 nm 276° / 276° -

Altitude Profile

Advertisement - Login to hide

Weather


0- 5 10 15 20 25 30 35+ Temperature / ° C

Clouds and Precipitation
Forecast for 2017-12-12 18:00 UTC. Updated an hour ago

Ground ~20,000 ft ~40,000 ft Winds

SABE

Details ICAO SABE (AEP)
Name Aeroparque Jorge Newbery
Region Argentina
Timezone Unknown (UTC+0.0)
Stats Elevation 17 ft / 5 m (AMSL)
Location -34.559414° -58.415749°
Runways 1
Magnetic Variation 8.980° W

METAR

SABE 121400Z 36007KT 320V020 CAVOK 23/14 Q1014

Decode

TAF

TAF SABE 121100Z 1212/1312 02010KT CAVOK TX29/1218Z TN20/1212Z BECMG 1219/1221 09010KT 9999 SCT035 BECMG 1303/1306 04010KT CAVOK

Decode

Departure Runways

ID Width Length Bearing (true) Bearing (mag) Surface Threshold Offset Overrun Length
13 131 ft / 40 m 6,882 ft / 2,098 m 123.87° 132.85° Concrete 0 ft / 0 m 791 ft / 241 m
31 131 ft / 40 m 6,882 ft / 2,098 m 303.86° 312.84° Concrete 991 ft / 302 m 0 ft / 0 m

SAME

Details ICAO SAME (MDZ)
Name El Plumerillo
Region Argentina
Timezone America/Argentina/Mendoza (UTC-3.0)
Stats Elevation 2,310 ft / 704 m (AMSL)
Location -32.831753° -68.792941°
Runways 1
Magnetic Variation 0.379° W

METAR

SAME 121400Z 14009KT CAVOK 29/12 Q1008

Decode

TAF

TAF TAF SAME 121100Z 1212/1312 14010KT 9999 FEW040TCU TX33/1220Z TN20/1310Z BECMG 1221/1223 14015KT 8000 TSRA FEW040TCU FEW050CB

Decode

Destination Runways

ID Width Length Bearing (true) Bearing (mag) Surface Threshold Offset Overrun Length
18 177 ft / 54 m 9,915 ft / 3,022 m 180.83° 181.21° Concrete 381 ft / 116 m 0 ft / 0 m
36 177 ft / 54 m 9,915 ft / 3,022 m 0.83° 1.21° Concrete 361 ft / 110 m 0 ft / 0 m

Approach Navaids

Runway Type Ident Frequency Range Bearing (true) Bearing (mag) Slope Elevation
36 Localiser DO 109.90 MHz 18 nm / 33 km 0.90° 1.28° - 2,310 ft / 704 m (AMSL)
36 Glidescope DO 109.90 MHz 10 nm / 19 km 0.83° 1.21° 3.00° 2,311 ft / 704 m (AMSL)
36 DME DO 109.90 MHz 18 nm / 33 km - - - 2,311 ft / 704 m (AMSL)

Popular Alternatives